createdAt,value
2018-07-06T00:00:47.379Z,64.07
2018-07-06T00:01:48.177Z,64.36
2018-07-06T00:02:48.948Z,64.11
2018-07-06T00:03:49.725Z,63.71
2018-07-06T00:04:50.492Z,63.48
2018-07-06T00:05:51.270Z,62.68
2018-07-06T00:06:52.080Z,62.87
2018-07-06T00:07:52.852Z,62.59
2018-07-06T00:08:53.676Z,62.80
2018-07-06T00:09:53.400Z,62.57
2018-07-06T00:10:55.227Z,62.41
2018-07-06T00:11:54.984Z,62.62
2018-07-06T00:12:56.770Z,62.10
2018-07-06T00:13:57.526Z,62.20
2018-07-06T00:14:58.326Z,62.36
2018-07-06T00:15:59.089Z,62.36
2018-07-06T00:16:59.882Z,62.32
2018-07-06T00:18:00.702Z,61.99
2018-07-06T00:19:00.427Z,62.01
2018-07-06T00:20:02.202Z,61.75
2018-07-06T00:21:02.997Z,61.60
2018-07-06T00:22:03.875Z,61.82
2018-07-06T00:23:03.565Z,61.67
2018-07-06T00:24:05.348Z,61.66
2018-07-06T00:25:06.129Z,61.59
2018-07-06T00:26:06.881Z,61.54
2018-07-06T00:27:07.682Z,61.27
2018-07-06T00:28:08.452Z,61.15
2018-07-06T00:29:09.254Z,60.88
2018-07-06T00:30:10.011Z,60.88
2018-07-06T00:31:10.788Z,61.00
2018-07-06T00:32:11.594Z,60.77
2018-07-06T00:33:12.371Z,60.86
2018-07-06T00:34:13.139Z,60.91
2018-07-06T00:35:13.997Z,61.03
2018-07-06T00:36:13.697Z,61.05
2018-07-06T00:37:15.522Z,61.10
2018-07-06T00:38:16.300Z,61.00
2018-07-06T00:39:17.066Z,60.97
2018-07-06T00:40:17.848Z,60.84
2018-07-06T00:41:17.614Z,60.62
2018-07-06T00:42:19.410Z,60.64
2018-07-06T00:43:20.184Z,60.60
2018-07-06T00:44:20.961Z,60.48
2018-07-06T00:45:21.727Z,60.32
2018-07-06T00:46:22.498Z,60.60
2018-07-06T00:47:24.281Z,60.32
2018-07-06T00:48:24.048Z,60.08
2018-07-06T00:49:24.831Z,59.98
2018-07-06T00:50:25.604Z,59.76
2018-07-06T00:51:26.383Z,59.37
2018-07-06T00:52:27.185Z,59.67
2018-07-06T00:53:27.958Z,59.47
2018-07-06T00:54:28.752Z,59.66
2018-07-06T00:55:29.529Z,59.76
2018-07-06T00:56:30.306Z,59.48
2018-07-06T00:57:31.095Z,59.47
2018-07-06T00:58:31.884Z,59.49
2018-07-06T00:59:32.652Z,59.65
2018-07-06T01:00:33.447Z,59.59
2018-07-06T01:01:34.397Z,59.51
2018-07-06T01:02:34.034Z,59.55
2018-07-06T01:03:35.805Z,59.65
2018-07-06T01:04:36.589Z,59.36
2018-07-06T01:05:37.372Z,58.93
2018-07-06T01:06:38.143Z,59.10
2018-07-06T01:07:38.934Z,58.76
2018-07-06T01:08:39.723Z,58.59
2018-07-06T01:09:40.486Z,58.61
2018-07-06T01:10:41.262Z,58.81
2018-07-06T01:11:42.067Z,59.05
2018-07-06T01:12:41.839Z,58.74
2018-07-06T01:13:43.612Z,58.73
2018-07-06T01:14:44.387Z,58.46
2018-07-06T01:15:45.164Z,58.66
2018-07-06T01:16:45.930Z,58.69
2018-07-06T01:17:46.763Z,58.66
2018-07-06T01:18:47.534Z,58.70
2018-07-06T01:19:48.339Z,58.72
2018-07-06T01:20:49.088Z,58.69
2018-07-06T01:21:49.860Z,58.48
2018-07-06T01:22:53.680Z,58.08
2018-07-06T01:23:51.455Z,58.10
2018-07-06T01:24:52.232Z,58.08
2018-07-06T01:25:53.012Z,57.91
2018-07-06T01:26:53.805Z,58.23
2018-07-06T01:27:54.585Z,58.35
2018-07-06T01:28:55.355Z,58.30
2018-07-06T01:29:56.132Z,58.60
2018-07-06T01:30:56.917Z,59.07
2018-07-06T01:31:57.695Z,58.99
2018-07-06T01:32:58.485Z,58.96
2018-07-06T01:33:58.260Z,58.75
2018-07-06T01:35:00.031Z,58.11
2018-07-06T01:36:00.814Z,58.21
2018-07-06T01:37:01.592Z,58.35
2018-07-06T01:38:02.405Z,58.18
2018-07-06T01:39:03.160Z,57.85
2018-07-06T01:40:03.967Z,57.79
2018-07-06T01:41:04.709Z,57.28
2018-07-06T01:42:07.266Z,57.31
2018-07-06T01:43:06.548Z,57.49
2018-07-06T01:44:05.754Z,57.94
2018-07-06T01:45:20.469Z,57.61
2018-07-06T01:46:21.239Z,57.69
2018-07-06T01:47:22.012Z,57.48
2018-07-06T01:48:21.828Z,57.50
2018-07-06T01:49:23.585Z,57.48
2018-07-06T01:50:24.361Z,57.17
2018-07-06T01:51:25.129Z,57.74
2018-07-06T01:52:25.924Z,57.63
2018-07-06T01:53:26.709Z,57.45
2018-07-06T01:54:27.485Z,57.05
2018-07-06T01:55:28.255Z,56.44
2018-07-06T01:56:29.038Z,56.11
2018-07-06T01:57:29.816Z,56.17
2018-07-06T01:58:30.605Z,56.00
2018-07-06T01:59:31.398Z,55.89
2018-07-06T02:00:31.170Z,55.58
2018-07-06T02:01:32.963Z,55.63
2018-07-06T02:02:33.726Z,55.57
2018-07-06T02:03:35.813Z,55.86
2018-07-06T02:04:34.582Z,55.88
2018-07-06T02:05:35.357Z,56.22
2018-07-06T02:06:36.132Z,56.15
2018-07-06T02:07:36.902Z,56.49
2018-07-06T02:08:37.707Z,56.22
2018-07-06T02:09:38.473Z,55.91
2018-07-06T02:10:39.256Z,56.48
2018-07-06T02:11:40.017Z,56.75
2018-07-06T02:12:40.793Z,56.84
2018-07-06T02:13:41.589Z,56.88
2018-07-06T02:14:42.368Z,56.56
2018-07-06T02:15:43.146Z,56.77
2018-07-06T02:16:43.923Z,56.90
2018-07-06T02:17:44.699Z,56.86
2018-07-06T02:18:45.505Z,56.96
2018-07-06T02:19:46.304Z,57.14
2018-07-06T02:20:47.070Z,57.29
2018-07-06T02:21:47.830Z,57.39
2018-07-06T02:22:48.602Z,57.30
2018-07-06T02:23:49.407Z,57.06
2018-07-06T02:24:50.182Z,56.80
2018-07-06T02:25:50.965Z,56.79
2018-07-06T02:26:51.781Z,56.59
2018-07-06T02:27:52.507Z,56.39
2018-07-06T02:28:55.751Z,56.31
2018-07-06T02:29:53.095Z,56.30
2018-07-06T02:30:54.893Z,56.36
2018-07-06T02:31:55.650Z,55.99
2018-07-06T02:32:56.418Z,55.85
2018-07-06T02:33:57.219Z,55.78
2018-07-06T02:34:57.994Z,56.05
2018-07-06T02:35:58.783Z,56.53
2018-07-06T02:36:59.568Z,56.59
2018-07-06T02:38:00.341Z,56.52
2018-07-06T02:39:01.121Z,56.57
2018-07-06T02:40:01.946Z,56.58
2018-07-06T02:41:01.668Z,56.56
2018-07-06T02:42:03.444Z,56.61
2018-07-06T02:43:04.222Z,56.84
2018-07-06T02:44:05.022Z,57.05
2018-07-06T02:45:05.793Z,57.16
2018-07-06T02:46:06.565Z,57.49
2018-07-06T02:47:07.341Z,57.54
2018-07-06T02:48:08.113Z,57.42
2018-07-06T02:49:08.915Z,57.35
2018-07-06T02:50:09.691Z,57.54
2018-07-06T02:51:10.462Z,57.41
2018-07-06T02:52:11.242Z,57.19
2018-07-06T02:53:12.018Z,57.61
2018-07-06T02:54:12.818Z,57.61
2018-07-06T02:55:13.650Z,57.60
2018-07-06T02:56:13.373Z,57.46
2018-07-06T02:57:15.139Z,57.66
2018-07-06T02:58:15.941Z,57.71
2018-07-06T02:59:16.718Z,57.91
2018-07-06T03:00:17.488Z,58.35
2018-07-06T03:01:18.272Z,58.19
2018-07-06T03:02:19.040Z,58.34
2018-07-06T03:03:19.836Z,58.06
2018-07-06T03:04:20.645Z,57.80
2018-07-06T03:05:21.414Z,57.63
2018-07-06T03:06:22.177Z,57.54
2018-07-06T03:07:22.966Z,57.46
2018-07-06T03:08:23.722Z,57.39
2018-07-06T03:09:24.529Z,57.40
2018-07-06T03:10:25.298Z,57.39
2018-07-06T03:11:26.084Z,57.34
2018-07-06T03:12:26.859Z,57.35
2018-07-06T03:13:27.636Z,57.25
2018-07-06T03:14:28.417Z,57.15
2018-07-06T03:15:29.192Z,57.14
2018-07-06T03:16:29.972Z,57.23
2018-07-06T03:17:30.752Z,57.03
2018-07-06T03:18:31.524Z,56.92
2018-07-06T03:19:32.326Z,56.93
2018-07-06T03:20:33.091Z,57.48
2018-07-06T03:21:33.869Z,57.54
2018-07-06T03:22:34.641Z,57.82
2018-07-06T03:23:35.419Z,58.53
2018-07-06T03:24:36.214Z,58.84
2018-07-06T03:25:37.013Z,59.01
2018-07-06T03:26:37.768Z,59.21
2018-07-06T03:27:38.544Z,59.10
2018-07-06T03:28:39.682Z,59.40
2018-07-06T03:29:39.113Z,59.44
2018-07-06T03:30:40.894Z,59.21
2018-07-06T03:31:41.670Z,59.34
2018-07-06T03:32:42.446Z,58.95
2018-07-06T03:33:43.216Z,59.03
2018-07-06T03:34:44.025Z,58.71
2018-07-06T03:35:44.801Z,58.73
2018-07-06T03:36:52.778Z,58.48
2018-07-06T03:37:45.468Z,58.71
2018-07-06T03:38:46.173Z,59.04
2018-07-06T03:39:49.412Z,59.27
2018-07-06T03:41:23.695Z,59.09
2018-07-06T03:42:24.464Z,59.07
2018-07-06T03:43:25.245Z,59.53
2018-07-06T03:44:26.014Z,59.40
2018-07-06T03:45:26.835Z,59.15
2018-07-06T03:46:27.590Z,59.09
2018-07-06T03:47:28.362Z,58.67
2018-07-06T03:48:30.131Z,58.84
2018-07-06T03:49:29.924Z,58.76
2018-07-06T03:50:30.708Z,58.37
2018-07-06T03:51:32.479Z,58.45
2018-07-06T03:52:32.268Z,58.76
2018-07-06T03:53:33.026Z,58.74
2018-07-06T03:54:33.801Z,58.65
2018-07-06T03:55:34.593Z,58.53
2018-07-06T03:56:35.382Z,58.53
2018-07-06T03:57:36.150Z,58.88
2018-07-06T03:58:36.924Z,58.98
2018-07-06T03:59:37.700Z,58.79
2018-07-06T04:00:38.508Z,58.55
2018-07-06T04:01:39.269Z,58.85
2018-07-06T04:02:40.071Z,58.34
2018-07-06T04:03:40.825Z,58.50
2018-07-06T04:04:41.613Z,58.44
2018-07-06T04:06:05.818Z,58.36
2018-07-06T04:06:44.963Z,58.56
2018-07-06T04:08:06.431Z,58.18
2018-07-06T04:08:43.608Z,58.75
2018-07-06T04:09:45.379Z,58.49
2018-07-06T04:10:53.535Z,58.22
2018-07-06T04:11:45.982Z,58.56
2018-07-06T04:12:47.764Z,58.95
2018-07-06T04:13:48.546Z,59.36
2018-07-06T04:14:49.320Z,58.86
2018-07-06T04:15:50.121Z,59.43
2018-07-06T04:16:50.940Z,58.93
2018-07-06T04:17:50.660Z,58.96
2018-07-06T04:18:52.436Z,58.72
2018-07-06T04:19:53.260Z,58.55
2018-07-06T04:20:53.049Z,58.47
2018-07-06T04:21:56.992Z,58.28
2018-07-06T04:22:57.345Z,58.20
2018-07-06T04:23:55.425Z,58.16
2018-07-06T04:24:57.198Z,58.79
2018-07-06T04:26:17.139Z,58.64
2018-07-06T04:27:00.416Z,58.29
2018-07-06T04:27:59.205Z,58.04
2018-07-06T04:28:59.983Z,57.96
2018-07-06T04:30:00.750Z,58.55
2018-07-06T04:31:04.026Z,59.02
2018-07-06T04:32:04.125Z,59.38
2018-07-06T04:33:02.933Z,58.79
2018-07-06T04:34:02.772Z,58.84
2018-07-06T04:35:05.676Z,58.52
2018-07-06T04:36:06.582Z,58.41
2018-07-06T04:37:05.066Z,58.19
2018-07-06T04:38:09.362Z,58.02
2018-07-06T04:39:06.675Z,58.04
2018-07-06T04:40:07.441Z,58.01
2018-07-06T04:41:09.253Z,57.79
2018-07-06T04:42:10.043Z,57.74
2018-07-06T04:43:10.804Z,57.70
2018-07-06T04:44:14.043Z,57.60
2018-07-06T04:45:11.359Z,57.62
2018-07-06T04:46:13.162Z,57.36
2018-07-06T04:47:13.982Z,57.19
2018-07-06T04:48:13.726Z,57.17
2018-07-06T04:49:15.492Z,57.62
2018-07-06T04:50:16.295Z,57.42
2018-07-06T04:51:16.065Z,57.34
2018-07-06T04:52:17.832Z,57.32
2018-07-06T04:53:18.640Z,57.40
2018-07-06T04:54:19.411Z,57.38
2018-07-06T04:55:20.179Z,57.47
2018-07-06T04:56:20.981Z,57.42
2018-07-06T04:57:21.780Z,57.46
2018-07-06T04:58:22.549Z,57.47
2018-07-06T04:59:23.325Z,57.24
2018-07-06T05:00:24.088Z,57.18
2018-07-06T05:01:24.953Z,56.97
2018-07-06T05:02:27.090Z,57.06
2018-07-06T05:03:25.523Z,57.25
2018-07-06T05:04:26.258Z,57.13
2018-07-06T05:05:30.808Z,56.95
2018-07-06T05:06:28.662Z,57.34
2018-07-06T05:07:37.023Z,57.09
2018-07-06T05:08:29.255Z,57.54
2018-07-06T05:09:31.043Z,57.85
2018-07-06T05:10:31.855Z,57.68
2018-07-06T05:11:31.627Z,57.14
2018-07-06T05:12:33.397Z,57.08
2018-07-06T05:13:34.188Z,56.86
2018-07-06T05:14:34.942Z,56.95
2018-07-06T05:15:35.734Z,57.29
2018-07-06T05:16:36.529Z,57.05
2018-07-06T05:17:36.306Z,58.05
2018-07-06T05:18:38.077Z,58.02
2018-07-06T05:19:38.842Z,57.61
2018-07-06T05:20:39.620Z,57.66
2018-07-06T05:21:40.414Z,57.32
2018-07-06T05:22:41.292Z,57.12
2018-07-06T05:23:40.958Z,56.67
2018-07-06T05:24:42.732Z,56.94
2018-07-06T05:25:43.507Z,57.15
2018-07-06T05:26:44.308Z,57.85
2018-07-06T05:27:45.082Z,58.06
2018-07-06T05:28:45.870Z,57.97
2018-07-06T05:29:46.637Z,57.70
2018-07-06T05:30:47.413Z,57.64
2018-07-06T05:31:48.260Z,57.31
2018-07-06T05:32:48.006Z,57.32
2018-07-06T05:33:49.794Z,57.01
2018-07-06T05:34:50.551Z,56.79
2018-07-06T05:35:51.330Z,56.66
2018-07-06T05:36:52.124Z,56.86
2018-07-06T05:37:52.994Z,56.82
2018-07-06T05:38:52.693Z,56.64
2018-07-06T05:39:54.456Z,56.24
2018-07-06T05:40:55.244Z,56.37
2018-07-06T05:41:56.045Z,56.20
2018-07-06T05:42:55.825Z,55.98
2018-07-06T05:44:00.121Z,56.35
2018-07-06T05:44:57.414Z,55.89
2018-07-06T05:45:58.157Z,55.83
2018-07-06T05:47:02.756Z,55.79
2018-07-06T05:48:00.606Z,55.86
2018-07-06T05:49:00.310Z,56.43
2018-07-06T05:50:02.088Z,56.66
2018-07-06T05:51:02.872Z,56.41
2018-07-06T05:52:03.671Z,56.33
2018-07-06T05:53:04.437Z,57.07
2018-07-06T05:54:05.235Z,57.19
2018-07-06T05:55:06.036Z,56.59
2018-07-06T05:56:05.764Z,56.79
2018-07-06T05:57:07.999Z,57.03
2018-07-06T05:59:15.855Z,56.02
2018-07-06T06:00:16.614Z,55.97
2018-07-06T06:01:17.383Z,56.23
2018-07-06T06:02:18.193Z,55.88
2018-07-06T06:03:19.958Z,55.48
2018-07-06T06:04:20.744Z,55.26
2018-07-06T06:05:21.516Z,55.08
2018-07-06T06:06:22.282Z,54.91
2018-07-06T06:07:23.078Z,54.40
2018-07-06T06:08:23.880Z,53.68
2018-07-06T06:09:24.618Z,54.04
2018-07-06T06:10:25.406Z,53.67
2018-07-06T06:11:26.190Z,53.24
2018-07-06T06:12:26.993Z,53.05
2018-07-06T06:13:27.744Z,53.38
2018-07-06T06:14:28.525Z,52.44
2018-07-06T06:15:29.319Z,52.00
2018-07-06T06:16:29.092Z,51.85
2018-07-06T06:17:30.909Z,52.31
2018-07-06T06:18:34.732Z,51.96
2018-07-06T06:19:33.698Z,52.04
2018-07-06T06:20:32.238Z,52.27
2018-07-06T06:21:34.007Z,52.67
2018-07-06T06:22:34.818Z,53.06
2018-07-06T06:23:35.604Z,53.60
2018-07-06T06:24:36.358Z,53.19
2018-07-06T06:25:37.145Z,52.92
2018-07-06T06:26:37.911Z,52.56
2018-07-06T06:27:38.739Z,52.77
2018-07-06T06:28:39.491Z,52.92
2018-07-06T06:29:40.267Z,52.79
2018-07-06T06:30:41.034Z,52.43
2018-07-06T06:31:41.815Z,52.58
2018-07-06T06:32:42.601Z,52.40
2018-07-06T06:33:43.494Z,51.91
2018-07-06T06:34:43.154Z,52.24
2018-07-06T06:35:44.924Z,52.39
2018-07-06T06:36:45.693Z,52.51
2018-07-06T06:37:46.494Z,52.47
2018-07-06T06:38:47.269Z,52.63
2018-07-06T06:39:48.048Z,51.81
2018-07-06T06:40:48.820Z,51.82
2018-07-06T06:41:49.594Z,51.46
2018-07-06T06:42:50.401Z,51.04
2018-07-06T06:43:51.171Z,50.95
2018-07-06T06:44:52.121Z,51.44
2018-07-06T06:45:51.734Z,50.78
2018-07-06T06:46:53.513Z,51.51
2018-07-06T06:47:54.314Z,51.57
2018-07-06T06:48:55.078Z,50.93
2018-07-06T06:49:55.867Z,50.57
2018-07-06T06:50:56.638Z,50.59
2018-07-06T06:51:57.419Z,50.14
2018-07-06T06:52:58.230Z,50.59
2018-07-06T06:53:58.981Z,50.78
2018-07-06T06:54:59.748Z,50.11
2018-07-06T06:56:00.526Z,50.43
2018-07-06T06:57:01.304Z,49.81
2018-07-06T06:58:02.099Z,49.72
2018-07-06T06:59:02.940Z,49.99
2018-07-06T07:00:02.665Z,49.57
2018-07-06T07:01:04.514Z,49.51
2018-07-06T07:02:04.214Z,49.05
2018-07-06T07:03:06.023Z,49.58
2018-07-06T07:04:06.813Z,49.22
2018-07-06T07:05:07.559Z,49.19
2018-07-06T07:06:08.393Z,49.24
2018-07-06T07:07:08.113Z,48.93
2018-07-06T07:08:09.914Z,48.75
2018-07-06T07:10:26.601Z,49.03
2018-07-06T07:10:31.122Z,48.53
2018-07-06T07:11:16.246Z,48.25
2018-07-06T07:12:14.327Z,48.11
2018-07-06T07:13:14.929Z,48.41
2018-07-06T07:14:16.827Z,48.70
2018-07-06T07:15:21.685Z,49.10
2018-07-06T07:16:21.503Z,49.62
2018-07-06T07:17:15.099Z,49.49
2018-07-06T07:18:21.065Z,49.49
2018-07-06T07:19:16.427Z,49.43
2018-07-06T07:20:18.196Z,49.40
2018-07-06T07:21:19.047Z,49.44
2018-07-06T07:22:18.786Z,49.52
2018-07-06T07:23:20.582Z,49.07
2018-07-06T07:24:21.355Z,48.90
2018-07-06T07:25:22.128Z,48.46
2018-07-06T07:26:22.919Z,48.18
2018-07-06T07:27:23.678Z,47.79
2018-07-06T07:28:24.491Z,47.79
2018-07-06T07:29:46.227Z,47.59
2018-07-06T07:30:25.048Z,47.24
2018-07-06T07:31:26.844Z,47.05
2018-07-06T07:32:27.605Z,46.99
2018-07-06T07:33:30.806Z,46.97
2018-07-06T07:34:28.233Z,46.78
2018-07-06T07:35:28.961Z,46.69
2018-07-06T07:36:30.779Z,46.74
2018-07-06T07:37:30.517Z,46.98
2018-07-06T07:38:32.301Z,47.08
2018-07-06T07:39:33.076Z,47.27
2018-07-06T07:40:33.852Z,47.43
2018-07-06T07:41:34.620Z,47.52
2018-07-06T07:42:35.407Z,47.63
2018-07-06T07:43:36.205Z,47.76
2018-07-06T07:44:36.977Z,47.53
2018-07-06T07:45:37.760Z,46.92
2018-07-06T07:46:38.597Z,47.01
2018-07-06T07:47:38.355Z,47.42
2018-07-06T07:48:40.198Z,47.77
2018-07-06T07:49:40.972Z,48.01
2018-07-06T07:50:41.750Z,48.04
2018-07-06T07:51:42.521Z,48.17
2018-07-06T07:52:43.305Z,48.18
2018-07-06T07:53:44.100Z,48.32
2018-07-06T07:54:44.869Z,48.16
2018-07-06T07:55:45.647Z,47.77
2018-07-06T07:56:46.414Z,47.21
2018-07-06T07:57:47.186Z,46.85
2018-07-06T07:58:48.026Z,46.83
2018-07-06T07:59:47.758Z,47.04
2018-07-06T08:00:49.649Z,47.15
2018-07-06T08:01:49.305Z,47.20
2018-07-06T08:02:51.076Z,47.08
2018-07-06T08:03:51.875Z,45.92
2018-07-06T08:04:52.647Z,46.27
2018-07-06T08:05:56.186Z,46.28
2018-07-06T08:06:56.131Z,46.45
2018-07-06T08:07:53.771Z,46.56
2018-07-06T08:08:54.540Z,46.74
2018-07-06T08:09:56.410Z,46.91
2018-07-06T08:10:56.571Z,46.26
2018-07-06T08:11:57.793Z,44.64
2018-07-06T08:12:58.740Z,45.69
2018-07-06T08:13:57.978Z,45.57
2018-07-06T08:14:58.707Z,42.09
2018-07-06T08:28:51.607Z,36.58
2018-07-06T08:29:52.375Z,36.60
2018-07-06T08:30:53.177Z,36.25
2018-07-06T08:31:53.969Z,38.05
2018-07-06T08:32:54.722Z,39.87
2018-07-06T08:33:55.493Z,41.03
2018-07-06T08:34:56.266Z,39.28
2018-07-06T08:35:57.068Z,37.75
2018-07-06T08:36:57.845Z,38.27
2018-07-06T08:37:58.630Z,40.37
2018-07-06T08:38:59.381Z,41.72
2018-07-06T08:40:00.160Z,42.66
2018-07-06T08:41:00.979Z,43.24
2018-07-06T08:42:01.747Z,41.00
2018-07-06T08:43:02.525Z,38.58
2018-07-06T08:44:03.288Z,37.83
2018-07-06T08:45:04.061Z,39.76
2018-07-06T08:46:04.865Z,40.74
2018-07-06T08:47:05.640Z,41.29
2018-07-06T08:48:06.463Z,41.62
2018-07-06T08:49:06.222Z,39.79
2018-07-06T08:50:10.701Z,37.67
2018-07-06T08:51:07.448Z,37.08
2018-07-06T08:52:09.236Z,35.77
2018-07-06T08:53:10.007Z,35.45
2018-07-06T08:54:09.777Z,37.22
2018-07-06T08:55:11.555Z,38.64
2018-07-06T08:56:12.347Z,36.40
2018-07-06T08:57:13.119Z,35.28
2018-07-06T08:58:13.891Z,35.98
2018-07-06T08:59:14.668Z,38.19
2018-07-06T09:00:15.449Z,40.07
2018-07-06T09:01:16.234Z,41.12
2018-07-06T09:02:17.016Z,41.80
2018-07-06T09:03:17.789Z,42.33
2018-07-06T09:04:18.658Z,42.69
2018-07-06T09:05:18.342Z,43.13
2018-07-06T09:06:20.138Z,40.81
2018-07-06T09:07:20.920Z,41.79
2018-07-06T09:08:21.691Z,42.41
2018-07-06T09:09:22.490Z,42.92
2018-07-06T09:10:22.242Z,42.94
2018-07-06T09:11:24.058Z,42.19
2018-07-06T09:12:24.819Z,41.94
2018-07-06T09:13:25.607Z,41.51
2018-07-06T09:14:26.387Z,39.98
2018-07-06T09:15:27.143Z,36.86
2018-07-06T09:16:27.952Z,37.68
2018-07-06T09:17:27.718Z,39.67
2018-07-06T09:18:29.489Z,40.98
2018-07-06T09:19:30.363Z,41.71
2018-07-06T09:20:30.092Z,42.25
2018-07-06T09:21:30.848Z,42.59
2018-07-06T09:22:32.615Z,42.75
2018-07-06T09:23:33.498Z,40.58
2018-07-06T09:24:33.184Z,38.21
2018-07-06T09:25:35.068Z,36.63
2018-07-06T09:26:34.741Z,35.36
2018-07-06T09:27:36.521Z,34.21
2018-07-06T09:28:37.287Z,33.62
2018-07-06T09:29:38.065Z,33.24
2018-07-06T09:30:38.835Z,32.68
2018-07-06T09:31:39.652Z,32.67
2018-07-06T09:32:40.419Z,33.87
2018-07-06T09:33:41.213Z,33.44
2018-07-06T09:34:41.972Z,32.52
2018-07-06T09:35:42.738Z,32.22
2018-07-06T09:36:43.541Z,32.68
2018-07-06T09:37:44.313Z,35.25
2018-07-06T09:38:45.093Z,37.21
2018-07-06T09:39:45.867Z,38.48
2018-07-06T09:40:46.637Z,37.54
2018-07-06T09:41:47.437Z,35.26
2018-07-06T09:42:48.222Z,36.65
2018-07-06T09:43:48.986Z,36.32
2018-07-06T09:44:49.762Z,34.08
2018-07-06T09:45:50.535Z,33.83
2018-07-06T09:46:51.358Z,35.92
2018-07-06T09:47:52.128Z,33.90
2018-07-06T09:48:52.914Z,32.84
2018-07-06T09:49:53.669Z,32.42
2018-07-06T09:50:54.478Z,32.73
2018-07-06T09:51:54.243Z,32.85
2018-07-06T09:52:56.020Z,32.55
2018-07-06T09:53:56.797Z,33.02
2018-07-06T09:54:57.567Z,32.88
2018-07-06T09:55:58.339Z,32.77
2018-07-06T09:56:59.135Z,32.92
2018-07-06T09:57:59.956Z,33.05
2018-07-06T09:58:59.680Z,33.91
2018-07-06T10:00:01.463Z,33.67
2018-07-06T10:01:02.235Z,33.46
2018-07-06T10:02:03.049Z,33.90
2018-07-06T10:03:06.250Z,33.75
2018-07-06T10:04:03.605Z,33.31
2018-07-06T10:05:05.377Z,33.71
2018-07-06T10:06:06.147Z,35.28
2018-07-06T10:07:06.986Z,35.79
2018-07-06T10:08:06.721Z,34.94
2018-07-06T10:09:08.492Z,34.84
2018-07-06T10:10:08.308Z,35.44
2018-07-06T10:11:09.043Z,35.75
2018-07-06T10:12:10.843Z,35.62
2018-07-06T10:13:11.648Z,35.22
2018-07-06T10:14:12.389Z,35.13
2018-07-06T10:15:13.219Z,35.77
2018-07-06T10:16:12.976Z,35.82
2018-07-06T10:17:19.748Z,35.86
2018-07-06T10:18:14.651Z,35.99
2018-07-06T10:19:16.419Z,36.04
2018-07-06T10:20:17.187Z,36.09
2018-07-06T10:21:18.367Z,35.97
2018-07-06T10:22:18.202Z,36.22
2018-07-06T10:23:17.939Z,36.35
2018-07-06T10:24:19.939Z,36.27
2018-07-06T10:25:22.330Z,36.01
2018-07-06T10:26:20.453Z,36.18
2018-07-06T10:27:22.257Z,36.16
2018-07-06T10:28:24.305Z,36.10
2018-07-06T10:29:22.787Z,36.18
2018-07-06T10:30:24.613Z,36.26
2018-07-06T10:31:25.373Z,36.03
2018-07-06T10:32:26.187Z,36.18
2018-07-06T10:33:26.969Z,36.63
2018-07-06T10:34:27.733Z,36.34
2018-07-06T10:35:30.689Z,36.07
2018-07-06T10:36:30.481Z,36.38
2018-07-06T10:37:29.139Z,36.28
2018-07-06T10:38:31.487Z,36.15
2018-07-06T10:41:26.805Z,36.10
2018-07-06T10:42:27.625Z,35.96
2018-07-06T10:43:28.469Z,35.83
2018-07-06T10:44:29.248Z,35.52
2018-07-06T10:45:38.247Z,35.91
2018-07-06T10:47:05.909Z,36.14
2018-07-06T10:48:07.106Z,36.18
2018-07-06T10:49:04.499Z,36.15
2018-07-06T10:50:06.305Z,35.85
2018-07-06T10:51:09.103Z,35.55
2018-07-06T10:52:06.849Z,35.71
2018-07-06T10:53:11.684Z,35.43
2018-07-06T10:54:08.520Z,35.31
2018-07-06T10:55:16.798Z,35.37
2018-07-06T10:56:10.068Z,35.41
2018-07-06T10:57:10.790Z,35.15
2018-07-06T10:58:21.443Z,35.16
2018-07-06T10:59:13.245Z,35.25
2018-07-06T11:00:14.017Z,35.22
2018-07-06T11:01:41.686Z,34.99
2018-07-06T11:02:17.449Z,34.73
2018-07-06T11:03:22.509Z,34.63
2018-07-06T11:04:18.184Z,34.91
2018-07-06T11:05:16.782Z,34.68
2018-07-06T11:06:27.653Z,34.65
2018-07-06T11:07:25.574Z,34.65
2018-07-06T11:08:21.904Z,34.93
2018-07-06T11:09:19.708Z,35.04
2018-07-06T11:10:28.944Z,34.93
2018-07-06T11:11:34.531Z,34.88
2018-07-06T11:12:22.095Z,35.04
2018-07-06T11:13:59.089Z,35.02
2018-07-06T11:15:03.151Z,35.06
2018-07-06T11:15:55.654Z,34.96
2018-07-06T11:17:18.977Z,35.14
2018-07-06T11:17:57.247Z,35.26
2018-07-06T11:18:59.073Z,35.50
2018-07-06T11:19:58.874Z,35.60
2018-07-06T11:20:59.610Z,35.63
2018-07-06T11:22:04.202Z,35.54
2018-07-06T11:23:01.980Z,35.72
2018-07-06T11:24:05.259Z,35.76
2018-07-06T11:25:02.627Z,36.01
2018-07-06T11:26:03.354Z,35.88
2018-07-06T11:27:10.318Z,35.96
2018-07-06T11:28:13.105Z,36.03
2018-07-06T11:29:05.709Z,35.90
2018-07-06T11:30:08.032Z,36.05
2018-07-06T11:31:10.033Z,35.98
2018-07-06T11:32:15.059Z,35.94
2018-07-06T11:33:08.424Z,36.06
2018-07-06T11:34:10.234Z,36.19
2018-07-06T11:35:46.382Z,36.18
2018-07-06T11:36:59.397Z,36.13
2018-07-06T11:37:39.269Z,36.20
2018-07-06T11:38:41.108Z,36.34
2018-07-06T11:39:40.833Z,36.45
2018-07-06T11:40:42.671Z,36.54
2018-07-06T11:41:42.448Z,36.51
2018-07-06T11:42:43.188Z,36.65
2018-07-06T11:43:45.025Z,36.46
2018-07-06T11:44:44.777Z,36.42
2018-07-06T11:45:46.570Z,36.42
2018-07-06T11:46:53.350Z,36.47
2018-07-06T11:47:48.109Z,36.41
2018-07-06T11:48:48.911Z,36.22
2018-07-06T11:49:49.697Z,36.44
2018-07-06T11:50:52.932Z,36.49
2018-07-06T11:51:50.335Z,36.31
2018-07-06T11:52:52.077Z,36.15
2018-07-06T11:53:52.857Z,36.19
2018-07-06T11:54:53.633Z,36.25
2018-07-06T11:55:57.238Z,36.03
2018-07-06T11:56:55.003Z,36.28
2018-07-06T11:57:55.771Z,36.09
2018-07-06T11:59:02.434Z,36.23
2018-07-06T11:59:56.237Z,36.11
2018-07-06T12:00:58.048Z,35.90
2018-07-06T12:01:58.855Z,36.10
2018-07-06T12:03:01.030Z,35.66
2018-07-06T12:03:59.445Z,35.75
2018-07-06T12:05:00.173Z,35.67
2018-07-06T12:06:02.009Z,35.74
2018-07-06T12:07:02.763Z,35.52
2018-07-06T12:08:03.584Z,35.12
2018-07-06T12:09:03.314Z,33.81
2018-07-06T12:10:05.098Z,33.12
2018-07-06T12:11:05.954Z,32.19
2018-07-06T12:12:08.438Z,31.09
2018-07-06T12:13:07.209Z,30.31
2018-07-06T12:14:07.991Z,29.62
2018-07-06T12:15:10.966Z,29.03
2018-07-06T12:16:08.588Z,28.60
2018-07-06T12:17:12.953Z,28.42
2018-07-06T12:18:12.339Z,28.11
2018-07-06T12:19:24.280Z,27.85
2018-07-06T12:20:11.732Z,27.76
2018-07-06T12:21:13.740Z,27.77
2018-07-06T12:22:18.546Z,27.42
2018-07-06T12:23:21.068Z,27.50
2018-07-06T12:25:18.403Z,27.54
2018-07-06T12:25:36.555Z,27.51
2018-07-06T12:26:18.178Z,27.51
2018-07-06T12:27:22.090Z,27.35
2018-07-06T12:29:04.068Z,27.41
2018-07-06T12:29:20.278Z,27.46
2018-07-06T12:30:18.896Z,27.40
2018-07-06T12:31:57.501Z,27.43
2018-07-06T12:32:20.505Z,27.87
2018-07-06T12:33:22.274Z,28.23
2018-07-06T12:34:23.784Z,28.00
2018-07-06T12:35:22.510Z,28.09
2018-07-06T12:36:24.386Z,27.85
2018-07-06T12:37:24.120Z,28.12
2018-07-06T12:38:25.883Z,28.24
2018-07-06T12:39:26.668Z,28.59
2018-07-06T12:40:33.454Z,29.19
2018-07-06T12:41:28.306Z,29.71
2018-07-06T12:42:28.023Z,30.89
2018-07-06T12:43:32.776Z,31.96
2018-07-06T12:44:29.484Z,33.34
2018-07-06T12:45:31.255Z,34.08
2018-07-06T12:46:32.066Z,34.59
2018-07-06T12:47:32.836Z,35.21
2018-07-06T12:48:33.624Z,35.49
2018-07-06T12:49:34.390Z,35.79
2018-07-06T12:50:35.166Z,35.81
2018-07-06T12:51:35.990Z,36.09
2018-07-06T12:52:37.913Z,36.51
2018-07-06T12:53:36.529Z,36.56
2018-07-06T12:54:38.310Z,36.54
2018-07-06T12:55:39.082Z,36.72
2018-07-06T12:56:39.878Z,36.82
2018-07-06T12:57:40.655Z,36.88
2018-07-06T12:58:41.559Z,36.98
2018-07-06T12:59:41.231Z,37.15
2018-07-06T13:00:42.969Z,37.17
2018-07-06T13:01:43.798Z,36.95
2018-07-06T13:02:44.561Z,37.07
2018-07-06T13:03:45.340Z,36.95
2018-07-06T13:04:46.097Z,36.77
2018-07-06T13:05:46.871Z,37.03
2018-07-06T13:06:47.693Z,37.27
2018-07-06T13:07:48.473Z,37.36
2018-07-06T13:08:49.267Z,37.40
2018-07-06T13:09:49.029Z,37.37
2018-07-06T13:10:50.796Z,37.43
2018-07-06T13:11:54.009Z,37.38
2018-07-06T13:12:51.365Z,37.49
2018-07-06T13:13:53.146Z,37.47
2018-07-06T13:14:53.955Z,37.12
2018-07-06T13:15:54.730Z,37.31
2018-07-06T13:16:55.515Z,37.50
2018-07-06T13:17:56.295Z,37.23
2018-07-06T13:18:57.071Z,37.56
2018-07-06T13:20:05.274Z,37.38
2018-07-06T13:20:57.651Z,37.38